Time;durP1;ratioP1;P1;durP2;ratioP2;P2;SDS_P1;SDS_P2;PMS_P1;PMS_P2;Temp;Humidity;BMP_temperature;BMP_pressure;BME280_temperature;BME280_humidity;BME280_pressure;Samples;Min_cycle;Max_cycle;Signal;HPM_P1;HPM_P2
2023/05/04 00:01:01;;;;;;;12.10;6.65;;;10.90;97.30;;;;;;5094257;28;20084;-50
2023/05/04 00:03:47;;;;;;;9.90;5.82;;;10.80;97.30;;;;;;5076271;28;20039;-52
2023/05/04 00:06:33;;;;;;;9.05;6.30;;;10.80;97.60;;;;;;5074784;28;20031;-49
2023/05/04 00:09:19;;;;;;;8.73;6.13;;;10.80;97.90;;;;;;5066084;28;20500;-51
2023/05/04 00:12:06;;;;;;;8.98;6.03;;;10.80;97.90;;;;;;5065772;28;20451;-48
2023/05/04 00:14:52;;;;;;;7.43;5.90;;;10.90;97.90;;;;;;5075555;28;20025;-49
2023/05/04 00:17:38;;;;;;;9.82;6.38;;;10.80;98.20;;;;;;5074204;28;20078;-52
2023/05/04 00:20:24;;;;;;;9.25;6.40;;;10.80;98.00;;;;;;5059356;28;20028;-50
2023/05/04 00:23:10;;;;;;;9.77;6.20;;;10.70;98.30;;;;;;5079071;28;20028;-54
2023/05/04 00:26:00;;;;;;;8.38;6.10;;;10.70;98.40;;;;;;5093995;28;20039;-47
2023/05/04 00:28:46;;;;;;;8.70;6.18;;;10.60;98.50;;;;;;5092251;28;20024;-48
2023/05/04 00:31:32;;;;;;;13.13;7.07;;;10.50;98.70;;;;;;5092607;28;20067;-52
2023/05/04 00:34:18;;;;;;;7.78;5.55;;;10.50;98.80;;;;;;5092705;28;20032;-52
2023/05/04 00:37:05;;;;;;;7.43;6.15;;;10.40;98.90;;;;;;5087806;28;20085;-50
2023/05/04 00:39:51;;;;;;;6.70;5.97;;;10.40;98.90;;;;;;5073311;28;20021;-52
2023/05/04 00:42:37;;;;;;;10.35;6.22;;;10.30;98.80;;;;;;5074345;28;20024;-53
2023/05/04 00:45:22;;;;;;;11.63;6.55;;;10.30;99.10;;;;;;5073335;28;20409;-53
2023/05/04 00:48:09;;;;;;;9.23;6.95;;;10.20;99.00;;;;;;5073956;28;20021;-53
2023/05/04 00:50:55;;;;;;;11.32;6.78;;;10.10;99.00;;;;;;5073857;28;20048;-54
2023/05/04 00:53:41;;;;;;;10.82;7.05;;;10.00;99.60;;;;;;5073741;28;20493;-50
2023/05/04 00:56:29;;;;;;;10.10;6.75;;;10.00;99.70;;;;;;5072872;28;20024;-50
2023/05/04 00:59:15;;;;;;;10.60;6.60;;;10.00;99.90;;;;;;5073522;28;20092;-50
2023/05/04 01:02:01;;;;;;;8.95;5.85;;;10.00;99.90;;;;;;5073431;28;20507;-49
2023/05/04 01:04:47;;;;;;;9.77;6.63;;;10.00;99.90;;;;;;5085940;28;20032;-48
2023/05/04 01:07:57;;;;;;;7.72;5.97;;;10.00;99.90;;;;;;5078242;28;20024;-49
2023/05/04 01:10:56;;;;;;;8.43;6.43;;;10.00;99.90;;;;;;5091515;28;20089;-49
2023/05/04 01:13:43;;;;;;;11.07;7.20;;;10.00;99.90;;;;;;5093069;28;20020;-50
2023/05/04 01:16:29;;;;;;;7.20;5.85;;;10.00;99.90;;;;;;5077145;28;20107;-50
2023/05/04 01:19:15;;;;;;;9.50;6.82;;;9.90;99.40;;;;;;5093148;28;20411;-49
2023/05/04 01:22:01;;;;;;;7.95;6.32;;;9.70;99.40;;;;;;5077229;28;20403;-49
2023/05/04 01:24:48;;;;;;;9.40;6.65;;;9.60;99.80;;;;;;5091114;28;20092;-50
2023/05/04 01:27:44;;;;;;;9.05;6.07;;;9.60;99.90;;;;;;5092663;28;20028;-51
2023/05/04 01:30:42;;;;;;;11.43;6.57;;;9.60;99.90;;;;;;5091604;28;20024;-49
2023/05/04 01:33:30;;;;;;;6.63;5.72;;;9.60;99.90;;;;;;5059630;28;20050;-51
2023/05/04 01:36:19;;;;;;;11.60;6.05;;;9.50;99.90;;;;;;5057295;28;20061;-49
2023/05/04 01:39:05;;;;;;;8.77;6.18;;;9.50;99.90;;;;;;5072153;28;20024;-49
2023/05/04 01:41:51;;;;;;;8.70;5.70;;;9.40;99.90;;;;;;5078107;28;20157;-50
2023/05/04 01:44:37;;;;;;;11.00;5.95;;;9.30;99.90;;;;;;5090718;28;20050;-48
2023/05/04 01:47:23;;;;;;;11.23;6.35;;;9.30;99.90;;;;;;5091538;28;20119;-51
2023/05/04 01:50:09;;;;;;;7.97;6.15;;;9.30;99.90;;;;;;5077185;28;20031;-49
2023/05/04 01:52:55;;;;;;;10.88;6.97;;;9.30;99.90;;;;;;5091825;28;20488;-50
2023/05/04 01:55:41;;;;;;;7.05;5.57;;;9.30;99.90;;;;;;5092433;28;20112;-49
2023/05/04 01:58:27;;;;;;;8.32;6.65;;;9.30;99.90;;;;;;5079589;28;20032;-50
2023/05/04 02:01:13;;;;;;;11.10;6.50;;;9.30;99.90;;;;;;5072811;28;20029;-51
2023/05/04 02:03:59;;;;;;;7.60;5.95;;;9.30;99.90;;;;;;5072947;28;20459;-49
2023/05/04 02:06:46;;;;;;;9.10;6.28;;;9.10;99.90;;;;;;5072395;28;20020;-49
2023/05/04 02:09:34;;;;;;;8.32;6.07;;;9.20;99.90;;;;;;5071336;28;20127;-51
2023/05/04 02:12:20;;;;;;;8.05;6.47;;;9.10;99.90;;;;;;5072095;28;20127;-49
2023/05/04 02:15:06;;;;;;;9.88;6.63;;;8.90;99.90;;;;;;5072558;28;20104;-49
2023/05/04 02:17:52;;;;;;;9.18;6.40;;;8.90;99.90;;;;;;5072217;28;20036;-50
2023/05/04 02:20:38;;;;;;;7.22;5.80;;;8.90;99.90;;;;;;5072454;28;20039;-53
2023/05/04 02:23:24;;;;;;;7.13;6.32;;;8.80;99.90;;;;;;5072379;28;20493;-51
2023/05/04 02:26:10;;;;;;;8.25;5.95;;;8.90;99.90;;;;;;5078161;28;20028;-52
2023/05/04 02:28:57;;;;;;;12.50;6.85;;;8.90;99.90;;;;;;5090695;28;20075;-51
2023/05/04 02:31:43;;;;;;;10.50;6.13;;;8.90;99.90;;;;;;5091666;28;20507;-51
2023/05/04 02:34:30;;;;;;;8.02;5.90;;;8.90;99.90;;;;;;5092168;28;20684;-50
2023/05/04 02:37:16;;;;;;;9.40;5.78;;;8.80;99.90;;;;;;5076032;28;20028;-51
2023/05/04 02:40:02;;;;;;;8.38;5.75;;;8.60;99.90;;;;;;5091414;28;20030;-49
2023/05/04 02:42:48;;;;;;;8.73;6.45;;;8.50;99.90;;;;;;5090564;28;20425;-49
2023/05/04 02:45:35;;;;;;;7.97;6.35;;;8.50;99.90;;;;;;5090095;28;20020;-48
2023/05/04 02:48:21;;;;;;;8.07;6.30;;;8.40;99.90;;;;;;5092012;28;20031;-51
2023/05/04 02:51:07;;;;;;;9.88;6.00;;;8.20;99.90;;;;;;5089796;28;20028;-51
2023/05/04 02:53:52;;;;;;;9.15;6.53;;;8.20;99.90;;;;;;5087929;28;20103;-50
2023/05/04 02:56:38;;;;;;;8.30;6.03;;;8.20;99.90;;;;;;5071935;28;20032;-49
2023/05/04 02:59:24;;;;;;;7.93;6.43;;;8.20;99.90;;;;;;5071501;28;20451;-53
2023/05/04 03:02:10;;;;;;;9.32;6.15;;;8.10;99.90;;;;;;5070491;28;20033;-55
2023/05/04 03:04:56;;;;;;;9.20;6.30;;;8.10;99.90;;;;;;5070753;28;20029;-51
2023/05/04 03:07:42;;;;;;;10.27;6.60;;;8.20;99.90;;;;;;5071467;28;20028;-53
2023/05/04 03:10:28;;;;;;;8.25;6.68;;;8.10;99.90;;;;;;5071133;28;20025;-50
2023/05/04 03:13:15;;;;;;;8.25;6.03;;;8.10;99.90;;;;;;5072055;28;20103;-51
2023/05/04 03:16:01;;;;;;;8.35;6.35;;;8.20;99.90;;;;;;5057389;28;20020;-50
2023/05/04 03:18:47;;;;;;;8.75;6.28;;;8.20;99.90;;;;;;5071701;28;20436;-53
2023/05/04 03:21:33;;;;;;;9.60;6.82;;;8.20;99.90;;;;;;5056191;28;20086;-50
2023/05/04 03:24:19;;;;;;;9.50;7.05;;;8.10;99.90;;;;;;5071855;28;20052;-48
2023/05/04 03:27:05;;;;;;;9.57;6.63;;;8.00;99.90;;;;;;5071365;28;20044;-51
2023/05/04 03:29:51;;;;;;;10.30;6.68;;;8.10;99.90;;;;;;5056955;28;20118;-51
2023/05/04 03:32:36;;;;;;;8.27;6.60;;;8.00;99.90;;;;;;5071742;28;20534;-52
2023/05/04 03:35:22;;;;;;;8.18;6.45;;;8.00;99.90;;;;;;5071795;28;20021;-49
2023/05/04 03:38:10;;;;;;;8.52;6.65;;;7.90;99.90;;;;;;5056390;28;20429;-49
2023/05/04 03:40:56;;;;;;;11.55;9.32;;;7.90;99.90;;;;;;5057972;28;20516;-50
2023/05/04 03:43:42;;;;;;;47.67;28.08;;;7.90;99.90;;;;;;5091111;28;20515;-48
2023/05/04 03:46:27;;;;;;;40.38;21.05;;;7.90;99.90;;;;;;5091662;28;20507;-49
2023/05/04 03:49:13;;;;;;;11.32;8.55;;;7.90;99.90;;;;;;5078940;28;20025;-49
2023/05/04 03:51:59;;;;;;;14.75;10.27;;;7.80;99.90;;;;;;5071467;28;20027;-49
2023/05/04 03:54:45;;;;;;;99.13;49.03;;;7.80;99.90;;;;;;5071508;28;20082;-51
2023/05/04 03:57:31;;;;;;;83.05;44.13;;;7.80;99.90;;;;;;5071275;28;20025;-56
2023/05/04 04:00:17;;;;;;;28.95;17.17;;;7.80;99.90;;;;;;5070889;28;20021;-51
2023/05/04 04:03:03;;;;;;;14.32;7.82;;;7.90;99.90;;;;;;5070946;28;20099;-48
2023/05/04 04:05:49;;;;;;;11.75;6.60;;;8.00;99.90;;;;;;5070742;28;20082;-48
2023/05/04 04:08:35;;;;;;;8.90;5.82;;;8.00;99.90;;;;;;5071849;28;20025;-47
2023/05/04 04:11:21;;;;;;;9.52;6.50;;;8.10;99.90;;;;;;5070851;28;20114;-50
2023/05/04 04:14:07;;;;;;;8.52;6.85;;;8.10;99.90;;;;;;5072485;28;20055;-49
2023/05/04 04:16:53;;;;;;;12.20;6.60;;;8.20;99.90;;;;;;5093463;28;20020;-49
2023/05/04 04:19:39;;;;;;;10.80;5.82;;;8.10;99.90;;;;;;5092656;28;20024;-49
2023/05/04 04:22:26;;;;;;;9.82;6.03;;;8.20;99.90;;;;;;5095036;28;20039;-48
2023/05/04 04:25:12;;;;;;;10.07;6.78;;;8.10;99.90;;;;;;5092778;28;20032;-54
2023/05/04 04:27:58;;;;;;;9.13;5.70;;;8.00;99.90;;;;;;5078195;28;20046;-49
2023/05/04 04:30:44;;;;;;;7.93;6.25;;;8.00;99.90;;;;;;5092601;28;20028;-47
2023/05/04 04:33:30;;;;;;;10.23;6.53;;;7.80;99.90;;;;;;5092744;28;20036;-48
2023/05/04 04:36:17;;;;;;;8.65;6.00;;;7.90;99.90;;;;;;5092065;28;20032;-48
2023/05/04 04:39:04;;;;;;;10.68;6.63;;;7.90;99.90;;;;;;5094562;28;20031;-51
2023/05/04 04:41:51;;;;;;;8.40;6.03;;;8.10;99.90;;;;;;5090345;28;20036;-48
2023/05/04 04:44:38;;;;;;;7.50;5.60;;;8.20;99.90;;;;;;5060154;28;20073;-45
2023/05/04 04:47:24;;;;;;;9.35;6.32;;;8.30;99.90;;;;;;5074040;28;20063;-49
2023/05/04 04:50:10;;;;;;;12.63;6.82;;;8.40;99.90;;;;;;5074702;28;20031;-46
2023/05/04 04:52:56;;;;;;;7.35;6.22;;;8.40;99.90;;;;;;5087058;28;20017;-51
2023/05/04 04:55:42;;;;;;;9.73;6.80;;;8.50;99.90;;;;;;5074827;28;20025;-50
2023/05/04 04:58:28;;;;;;;11.30;7.15;;;8.50;99.90;;;;;;5073763;28;20484;-48
2023/05/04 05:01:16;;;;;;;14.98;7.50;;;8.50;99.90;;;;;;5088019;28;20447;-49
2023/05/04 05:04:02;;;;;;;8.85;6.13;;;8.60;99.90;;;;;;5093363;28;20119;-50
2023/05/04 05:06:50;;;;;;;9.48;6.63;;;8.70;99.90;;;;;;5094108;28;20508;-52
2023/05/04 05:09:36;;;;;;;9.40;7.10;;;8.80;99.90;;;;;;5091789;28;20028;-46
2023/05/04 05:12:22;;;;;;;10.45;7.32;;;8.80;99.90;;;;;;5074054;28;20017;-50
2023/05/04 05:15:09;;;;;;;10.93;7.03;;;8.80;99.90;;;;;;5073057;28;20032;-52
2023/05/04 05:17:55;;;;;;;8.30;6.32;;;8.80;99.90;;;;;;5072903;28;20028;-50
2023/05/04 05:20:41;;;;;;;11.52;6.95;;;9.00;99.90;;;;;;5072496;28;20032;-53
2023/05/04 05:23:27;;;;;;;9.88;6.35;;;9.00;99.90;;;;;;5073605;28;20089;-52
2023/05/04 05:26:13;;;;;;;8.98;6.30;;;9.10;99.90;;;;;;5072396;28;20091;-51
2023/05/04 05:28:59;;;;;;;12.10;8.50;;;9.10;99.90;;;;;;5073126;28;20068;-49
2023/05/04 05:31:45;;;;;;;11.00;7.78;;;9.20;99.90;;;;;;5073326;28;20021;-47
2023/05/04 05:34:31;;;;;;;10.68;6.80;;;9.30;99.90;;;;;;5072390;28;20042;-55
2023/05/04 05:37:17;;;;;;;10.68;6.47;;;9.30;99.90;;;;;;5073256;28;20493;-50
2023/05/04 05:40:07;;;;;;;9.57;6.70;;;9.40;99.90;;;;;;5073032;28;20031;-51
2023/05/04 05:42:52;;;;;;;8.63;7.18;;;9.50;99.90;;;;;;5073435;28;20023;-53
2023/05/04 05:45:38;;;;;;;10.50;7.15;;;9.60;99.90;;;;;;5072445;28;20036;-48
2023/05/04 05:48:24;;;;;;;12.68;6.75;;;9.70;99.90;;;;;;5073401;28;20035;-55
2023/05/04 05:51:10;;;;;;;9.23;7.30;;;9.90;99.90;;;;;;5072329;28;20017;-53
2023/05/04 05:53:56;;;;;;;13.30;7.18;;;10.00;99.90;;;;;;5072921;28;20027;-50
2023/05/04 05:56:42;;;;;;;8.80;7.07;;;10.10;99.90;;;;;;5072275;28;20083;-47
2023/05/04 05:59:28;;;;;;;13.35;8.13;;;10.20;99.90;;;;;;5072514;28;20081;-48
2023/05/04 06:02:14;;;;;;;11.13;7.40;;;10.20;99.90;;;;;;5072359;28;20086;-49
2023/05/04 06:05:00;;;;;;;14.55;8.63;;;10.30;99.90;;;;;;5072823;28;20025;-53
2023/05/04 06:07:46;;;;;;;11.20;7.35;;;10.40;99.90;;;;;;5072368;28;20028;-50
2023/05/04 06:10:33;;;;;;;9.93;8.10;;;10.60;99.90;;;;;;5082895;28;20063;-53
2023/05/04 06:13:19;;;;;;;11.75;8.32;;;10.70;99.90;;;;;;5092349;28;20028;-49
2023/05/04 06:16:05;;;;;;;13.27;8.68;;;10.90;99.90;;;;;;5091366;28;20024;-51
2023/05/04 06:18:51;;;;;;;11.75;8.25;;;11.10;99.60;;;;;;5076104;28;20465;-53
2023/05/04 06:21:37;;;;;;;13.70;8.43;;;11.20;99.10;;;;;;5091048;28;20032;-51
2023/05/04 06:24:24;;;;;;;11.88;8.30;;;11.30;98.60;;;;;;5091341;28;20119;-54
2023/05/04 06:27:10;;;;;;;12.80;8.43;;;11.40;98.30;;;;;;5091585;28;20032;-51
2023/05/04 06:29:56;;;;;;;11.30;8.90;;;11.50;98.10;;;;;;5091411;28;20057;-50
2023/05/04 06:32:42;;;;;;;10.25;7.90;;;11.60;97.80;;;;;;5091393;28;20020;-50
2023/05/04 06:35:28;;;;;;;10.70;8.00;;;11.60;97.80;;;;;;5089311;28;20028;-49
2023/05/04 06:38:14;;;;;;;12.20;8.65;;;11.80;97.50;;;;;;5089303;28;20032;-55
2023/05/04 06:41:00;;;;;;;19.45;8.75;;;11.90;97.40;;;;;;5079291;28;20737;-52
2023/05/04 06:43:46;;;;;;;9.45;7.63;;;12.00;97.10;;;;;;5084914;28;20028;-53
2023/05/04 06:46:34;;;;;;;11.73;8.15;;;12.10;96.80;;;;;;5070846;28;20515;-51
2023/05/04 06:49:20;;;;;;;16.17;8.48;;;12.20;96.10;;;;;;5056340;28;20044;-51
2023/05/04 06:52:05;;;;;;;13.05;7.95;;;12.30;95.50;;;;;;5071909;28;20400;-52
2023/05/04 06:54:51;;;;;;;10.35;7.28;;;12.30;95.10;;;;;;5072009;28;20052;-51
2023/05/04 06:57:37;;;;;;;12.02;7.18;;;12.40;95.10;;;;;;5071969;28;20025;-54
2023/05/04 07:00:23;;;;;;;9.75;6.43;;;12.40;94.80;;;;;;5051600;28;20068;-54
2023/05/04 07:03:09;;;;;;;10.10;6.55;;;12.60;94.60;;;;;;5051155;28;20021;-54
2023/05/04 07:05:55;;;;;;;10.43;7.10;;;12.70;94.60;;;;;;5052221;28;20021;-51
2023/05/04 07:08:41;;;;;;;9.90;7.15;;;12.70;94.30;;;;;;5050570;28;20133;-51
2023/05/04 07:11:27;;;;;;;9.23;6.40;;;12.70;94.30;;;;;;5025760;28;20025;-52
2023/05/04 07:14:14;;;;;;;12.45;7.25;;;12.90;94.30;;;;;;5071417;28;20025;-48
2023/05/04 07:17:00;;;;;;;11.52;6.82;;;13.00;94.20;;;;;;5070010;28;20024;-48
2023/05/04 07:19:51;;;;;;;19.05;8.25;;;13.10;93.80;;;;;;5071348;28;20548;-51
2023/05/04 07:22:39;;;;;;;11.45;6.85;;;13.20;94.00;;;;;;5070976;28;20128;-52
2023/05/04 07:25:26;;;;;;;12.27;7.43;;;13.30;93.40;;;;;;5071728;28;20082;-50
2023/05/04 07:28:12;;;;;;;13.23;8.32;;;13.40;93.10;;;;;;5070117;28;20082;-52
2023/05/04 07:30:58;;;;;;;15.65;8.30;;;13.40;93.00;;;;;;5072424;28;20081;-52
2023/05/04 07:33:44;;;;;;;12.55;8.73;;;13.40;93.00;;;;;;5071810;28;20021;-51
2023/05/04 07:36:34;;;;;;;16.25;8.35;;;13.50;92.90;;;;;;5088894;28;20032;-46
2023/05/04 07:39:20;;;;;;;10.25;7.00;;;13.60;92.80;;;;;;5091229;28;20028;-49
2023/05/04 07:42:07;;;;;;;17.95;8.43;;;13.70;92.70;;;;;;5090871;28;20028;-55
2023/05/04 07:44:53;;;;;;;11.05;7.50;;;13.90;92.60;;;;;;5089946;28;20035;-51
2023/05/04 07:47:39;;;;;;;11.45;8.20;;;14.00;92.50;;;;;;5089945;28;20048;-49
2023/05/04 07:50:25;;;;;;;15.15;8.73;;;14.10;92.40;;;;;;5095487;28;20081;-53
2023/05/04 07:53:11;;;;;;;14.07;7.88;;;14.20;92.30;;;;;;5071430;28;20034;-53
2023/05/04 07:56:06;;;;;;;11.23;7.70;;;14.30;92.40;;;;;;5074096;28;20029;-53
2023/05/04 07:58:52;;;;;;;12.13;8.13;;;14.50;92.10;;;;;;5088592;28;20055;-54
2023/05/04 08:01:38;;;;;;;9.30;7.93;;;14.50;92.00;;;;;;5075499;28;20120;-55
2023/05/04 08:04:24;;;;;;;14.30;7.78;;;14.50;91.90;;;;;;5074150;28;20033;-52
2023/05/04 08:07:10;;;;;;;13.60;8.55;;;14.70;91.60;;;;;;5073602;28;20400;-52
2023/05/04 08:09:56;;;;;;;13.02;7.45;;;14.80;91.60;;;;;;5074393;28;20060;-53
2023/05/04 08:12:42;;;;;;;10.68;7.75;;;14.90;91.50;;;;;;5074262;28;20101;-50
2023/05/04 08:15:28;;;;;;;12.00;7.32;;;14.90;91.30;;;;;;5073425;28;20028;-50
2023/05/04 08:18:14;;;;;;;9.63;7.43;;;14.90;91.00;;;;;;5071392;28;20033;-55
2023/05/04 08:21:00;;;;;;;12.98;7.40;;;14.70;90.20;;;;;;5086034;28;20119;-51
2023/05/04 08:23:46;;;;;;;11.82;7.50;;;14.70;90.40;;;;;;5092425;28;20039;-48
2023/05/04 08:26:35;;;;;;;12.65;8.07;;;14.90;90.60;;;;;;5090625;28;20031;-49
2023/05/04 08:29:21;;;;;;;11.93;7.75;;;15.10;90.50;;;;;;5092617;28;20036;-52
2023/05/04 08:32:07;;;;;;;14.88;8.50;;;15.10;90.60;;;;;;5093813;28;20500;-50
2023/05/04 08:34:53;;;;;;;38.00;12.90;;;15.10;90.70;;;;;;5092713;28;20052;-53
2023/05/04 08:37:39;;;;;;;18.30;8.57;;;15.00;90.70;;;;;;5086970;28;20542;-51
2023/05/04 08:40:25;;;;;;;9.55;8.05;;;15.20;90.60;;;;;;5089872;28;20029;-49
2023/05/04 08:43:11;;;;;;;11.77;8.60;;;15.20;90.30;;;;;;5090964;28;20074;-58
2023/05/04 08:45:57;;;;;;;13.70;8.80;;;15.40;90.30;;;;;;5092276;28;20099;-51
2023/05/04 08:48:46;;;;;;;16.25;9.18;;;15.40;90.60;;;;;;5093273;28;20090;-54
2023/05/04 08:51:35;;;;;;;15.80;9.23;;;15.60;90.60;;;;;;5088789;28;20024;-48
2023/05/04 08:54:22;;;;;;;10.93;8.10;;;15.80;90.50;;;;;;5065378;28;20024;-48
2023/05/04 08:57:08;;;;;;;13.90;8.82;;;15.80;90.20;;;;;;5092339;28;20060;-44
2023/05/04 08:59:54;;;;;;;10.45;8.35;;;16.00;90.10;;;;;;5081827;28;20036;-45
2023/05/04 09:02:41;;;;;;;10.80;8.88;;;16.00;89.80;;;;;;5073421;28;20287;-49
2023/05/04 09:05:28;;;;;;;10.35;7.55;;;16.10;89.20;;;;;;5056170;28;20029;-44
2023/05/04 09:08:14;;;;;;;18.23;8.98;;;16.20;88.80;;;;;;5052575;28;20065;-43
2023/05/04 09:11:00;;;;;;;14.38;8.25;;;16.30;88.50;;;;;;5053465;28;20037;-45
2023/05/04 09:13:46;;;;;;;14.70;8.43;;;16.40;88.50;;;;;;5063572;28;20017;-43
2023/05/04 09:16:34;;;;;;;12.70;7.88;;;16.50;87.10;;;;;;5089524;28;20047;-49
2023/05/04 09:19:20;;;;;;;10.45;7.53;;;16.50;86.40;;;;;;5086431;28;20120;-48
2023/05/04 09:22:16;;;;;;;9.55;7.45;;;16.60;85.40;;;;;;5065875;28;20029;-45
2023/05/04 09:25:12;;;;;;;12.80;7.43;;;16.70;85.20;;;;;;5056231;28;20044;-49
2023/05/04 09:27:58;;;;;;;8.45;6.63;;;16.70;84.10;;;;;;5052116;28;20091;-47
2023/05/04 09:30:45;;;;;;;13.77;8.60;;;16.70;82.40;;;;;;5070583;28;20020;-43
2023/05/04 09:33:31;;;;;;;13.35;9.02;;;16.70;82.50;;;;;;5073697;28;20600;-43
2023/05/04 09:36:19;;;;;;;9.95;8.25;;;16.70;84.50;;;;;;5052838;28;20033;-46
2023/05/04 09:39:12;;;;;;;13.27;8.43;;;16.70;85.20;;;;;;5069558;28;20040;-43
2023/05/04 09:41:59;;;;;;;11.02;8.13;;;16.80;85.90;;;;;;5088773;28;20020;-44
2023/05/04 09:44:56;;;;;;;17.67;9.55;;;17.00;85.30;;;;;;5092619;28;20020;-46
2023/05/04 09:47:43;;;;;;;11.77;8.20;;;17.10;84.10;;;;;;5090784;28;20028;-48
2023/05/04 09:50:32;;;;;;;13.95;9.10;;;17.00;84.90;;;;;;5091986;28;20051;-44
2023/05/04 09:53:21;;;;;;;11.43;8.50;;;17.00;85.10;;;;;;5059438;28;20021;-44
2023/05/04 09:56:19;;;;;;;11.05;7.65;;;17.10;85.40;;;;;;5071492;28;20028;-47
2023/05/04 09:59:05;;;;;;;14.05;7.38;;;17.30;85.10;;;;;;5077948;28;20024;-45
2023/05/04 10:01:52;;;;;;;12.70;7.72;;;17.30;83.40;;;;;;5082063;28;20028;-47
2023/05/04 10:04:39;;;;;;;10.63;7.25;;;17.40;81.90;;;;;;5054513;28;20120;-45
2023/05/04 10:07:30;;;;;;;12.52;7.85;;;17.50;81.70;;;;;;5074805;28;20021;-46
2023/05/04 10:10:16;;;;;;;9.93;6.90;;;17.50;80.40;;;;;;5071655;28;20083;-46
2023/05/04 10:13:02;;;;;;;11.75;7.38;;;17.60;81.60;;;;;;5068009;28;20035;-49
2023/05/04 10:16:13;;;;;;;10.63;7.13;;;17.50;81.40;;;;;;5050623;28;20040;-48
2023/05/04 10:19:18;;;;;;;10.57;7.15;;;17.70;81.40;;;;;;5051228;28;20584;-49
2023/05/04 10:22:17;;;;;;;11.20;7.18;;;17.70;81.30;;;;;;5058480;28;20016;-47
2023/05/04 10:25:30;;;;;;;10.55;7.13;;;17.70;80.30;;;;;;5063192;28;20047;-47
2023/05/04 10:28:42;;;;;;;11.40;6.93;;;17.60;79.70;;;;;;5062362;28;20024;-47
2023/05/04 10:31:41;;;;;;;10.65;7.32;;;17.70;79.90;;;;;;5080107;28;20549;-46
2023/05/04 10:34:32;;;;;;;8.43;6.75;;;17.90;80.20;;;;;;5075336;28;20039;-46
2023/05/04 10:37:20;;;;;;;10.88;6.55;;;18.00;79.70;;;;;;5085939;28;20020;-50
2023/05/04 10:40:07;;;;;;;8.73;6.57;;;18.10;79.20;;;;;;5072057;28;20104;-47
2023/05/04 10:42:53;;;;;;;9.63;7.43;;;18.10;78.10;;;;;;5070372;28;20063;-48
2023/05/04 10:45:40;;;;;;;12.38;7.57;;;18.10;78.30;;;;;;5086273;28;20035;-49
2023/05/04 10:48:36;;;;;;;8.80;6.63;;;17.90;77.50;;;;;;5051066;28;20028;-50
2023/05/04 10:51:23;;;;;;;14.75;7.55;;;17.90;77.60;;;;;;5051296;28;20025;-48
2023/05/04 10:54:18;;;;;;;8.90;7.10;;;17.90;77.50;;;;;;5051385;28;20024;-51
2023/05/04 10:57:12;;;;;;;12.30;6.22;;;18.00;76.30;;;;;;5062736;28;20019;-48
2023/05/04 10:59:58;;;;;;;11.82;7.20;;;18.20;76.90;;;;;;5073596;28;20086;-46
2023/05/04 11:02:47;;;;;;;11.30;6.18;;;18.20;76.70;;;;;;5089545;28;20089;-50
2023/05/04 11:05:44;;;;;;;9.25;6.60;;;18.30;77.30;;;;;;5067838;28;20489;-48
2023/05/04 11:08:31;;;;;;;11.43;6.57;;;18.30;76.60;;;;;;5051514;28;20032;-45
2023/05/04 11:11:17;;;;;;;7.95;6.15;;;18.40;76.50;;;;;;5050286;28;20029;-46
2023/05/04 11:14:03;;;;;;;12.07;6.40;;;18.50;75.90;;;;;;5061894;28;20035;-45
2023/05/04 11:16:49;;;;;;;14.52;6.00;;;18.30;75.50;;;;;;5072013;28;20078;-46
2023/05/04 11:19:35;;;;;;;12.00;6.68;;;18.40;75.70;;;;;;5071463;28;20020;-50
2023/05/04 11:22:21;;;;;;;9.98;5.97;;;18.60;75.50;;;;;;5081005;28;20016;-47
2023/05/04 11:25:08;;;;;;;11.93;7.18;;;18.80;74.80;;;;;;5094250;28;20519;-46
2023/05/04 11:27:54;;;;;;;9.88;6.75;;;19.00;74.50;;;;;;5094650;28;20032;-46
2023/05/04 11:30:41;;;;;;;21.17;12.80;;;18.80;74.20;;;;;;5061804;28;20025;-49
2023/05/04 11:33:26;;;;;;;16.98;10.32;;;18.50;74.10;;;;;;5054520;28;20071;-47
2023/05/04 11:36:13;;;;;;;8.75;7.03;;;18.50;74.60;;;;;;5068336;28;20032;-49
2023/05/04 11:38:59;;;;;;;9.45;6.10;;;18.80;74.00;;;;;;5053858;28;20071;-53
2023/05/04 11:41:45;;;;;;;8.38;6.38;;;18.70;73.40;;;;;;5059786;28;20032;-48
2023/05/04 11:44:32;;;;;;;10.98;6.43;;;18.80;73.60;;;;;;5066231;28;20040;-50
2023/05/04 11:47:18;;;;;;;10.38;6.20;;;18.90;73.60;;;;;;5061532;28;20033;-50
2023/05/04 11:50:09;;;;;;;10.13;5.95;;;19.20;73.50;;;;;;5073715;28;20436;-52
2023/05/04 11:53:12;;;;;;;10.82;7.25;;;19.30;73.50;;;;;;5074343;28;20506;-51
2023/05/04 11:56:01;;;;;;;8.50;6.55;;;19.20;72.80;;;;;;5074145;28;20484;-51
2023/05/04 11:58:47;;;;;;;8.65;6.57;;;19.00;72.80;;;;;;5068147;28;20028;-52
2023/05/04 12:01:36;;;;;;;10.02;6.60;;;18.70;73.20;;;;;;5057686;28;20033;-47
2023/05/04 12:04:22;;;;;;;9.32;6.75;;;18.90;74.40;;;;;;5053870;28;20064;-51
2023/05/04 12:07:08;;;;;;;11.20;5.72;;;19.10;74.00;;;;;;5055385;28;20178;-48
2023/05/04 12:09:54;;;;;;;7.63;6.80;;;19.20;74.20;;;;;;5074248;28;20115;-49
2023/05/04 12:12:40;;;;;;;10.77;6.80;;;19.30;73.90;;;;;;5073492;28;20084;-45
2023/05/04 12:15:35;;;;;;;9.35;7.07;;;19.50;73.10;;;;;;5074777;28;20028;-47
2023/05/04 12:18:28;;;;;;;12.00;6.47;;;19.30;72.60;;;;;;5074625;28;20027;-45
2023/05/04 12:21:17;;;;;;;9.43;6.63;;;19.50;73.00;;;;;;5074167;28;20029;-49
2023/05/04 12:24:04;;;;;;;12.90;7.05;;;19.70;72.80;;;;;;5063785;28;20041;-47
2023/05/04 12:26:51;;;;;;;10.45;5.75;;;19.70;71.90;;;;;;5056371;28;20032;-45
2023/05/04 12:29:37;;;;;;;12.13;6.28;;;19.90;72.40;;;;;;5079214;28;20032;-47
2023/05/04 12:32:22;;;;;;;12.02;6.38;;;19.90;71.90;;;;;;5054374;28;20056;-48
2023/05/04 12:35:09;;;;;;;7.68;5.53;;;19.90;72.30;;;;;;5073467;28;20107;-48
2023/05/04 12:37:55;;;;;;;7.90;6.13;;;20.10;72.00;;;;;;5094133;28;20039;-46
2023/05/04 12:40:42;;;;;;;11.65;6.55;;;20.30;72.40;;;;;;5092653;28;20036;-49
2023/05/04 12:43:28;;;;;;;23.63;7.63;;;20.40;71.00;;;;;;5092884;28;20497;-46
2023/05/04 12:46:20;;;;;;;10.32;6.13;;;20.50;70.70;;;;;;5093114;28;20024;-50
2023/05/04 12:49:06;;;;;;;7.93;5.78;;;20.70;70.60;;;;;;5091013;28;20484;-46
2023/05/04 12:51:51;;;;;;;8.40;5.70;;;20.90;70.10;;;;;;5073663;28;20493;-51
2023/05/04 12:54:37;;;;;;;13.27;7.05;;;21.00;70.10;;;;;;5073508;28;20173;-49
2023/05/04 12:57:23;;;;;;;7.97;5.57;;;21.00;69.60;;;;;;5070541;28;20140;-46
2023/05/04 13:00:10;;;;;;;12.38;5.72;;;20.80;69.60;;;;;;5053168;28;20029;-46
2023/05/04 13:02:59;;;;;;;8.68;5.38;;;20.80;69.90;;;;;;5068189;28;20386;-49
2023/05/04 13:05:47;;;;;;;9.02;5.45;;;20.60;70.00;;;;;;5074472;28;20027;-46
2023/05/04 13:08:33;;;;;;;7.80;6.05;;;20.70;70.00;;;;;;5072935;28;20029;-47
2023/05/04 13:11:19;;;;;;;9.63;5.90;;;20.60;69.30;;;;;;5072680;28;20025;-51
2023/05/04 13:14:06;;;;;;;8.13;6.00;;;20.50;69.80;;;;;;5072842;28;20032;-45
2023/05/04 13:16:52;;;;;;;7.45;4.90;;;20.60;69.90;;;;;;5072046;28;20413;-49
2023/05/04 13:19:38;;;;;;;11.77;6.47;;;20.80;70.20;;;;;;5072722;28;20472;-52
2023/05/04 13:22:24;;;;;;;12.00;5.93;;;20.90;69.60;;;;;;5071266;28;20033;-49
2023/05/04 13:25:10;;;;;;;12.85;6.43;;;20.80;69.50;;;;;;5073358;28;20043;-51
2023/05/04 13:27:57;;;;;;;8.05;5.70;;;20.60;69.20;;;;;;5071969;28;20053;-48
2023/05/04 13:30:43;;;;;;;6.22;4.70;;;20.60;69.30;;;;;;5071978;28;20029;-48
2023/05/04 13:33:29;;;;;;;9.80;5.82;;;20.60;69.60;;;;;;5069145;28;20085;-49
2023/05/04 13:36:15;;;;;;;8.25;5.35;;;20.70;70.00;;;;;;5073205;28;20438;-48
2023/05/04 13:39:02;;;;;;;10.52;5.68;;;20.80;69.90;;;;;;5072572;28;20035;-51
2023/05/04 13:41:48;;;;;;;8.70;5.60;;;20.80;69.30;;;;;;5076800;28;20094;-47
2023/05/04 13:44:34;;;;;;;8.10;5.72;;;20.90;69.30;;;;;;5053304;28;20036;-47
2023/05/04 13:47:22;;;;;;;11.70;5.90;;;21.10;69.50;;;;;;5053104;28;20037;-47
2023/05/04 13:50:08;;;;;;;8.95;4.95;;;21.20;69.80;;;;;;5090356;28;20110;-47
2023/05/04 13:52:54;;;;;;;11.15;6.07;;;21.20;69.20;;;;;;5091935;28;20050;-50
2023/05/04 13:55:40;;;;;;;10.18;6.05;;;21.20;68.80;;;;;;5091896;28;20038;-49
2023/05/04 13:58:26;;;;;;;9.77;6.35;;;21.00;68.40;;;;;;5091633;28;20028;-47
2023/05/04 14:01:12;;;;;;;11.98;6.22;;;20.90;68.30;;;;;;5091315;28;20391;-47
2023/05/04 14:03:58;;;;;;;10.10;6.50;;;20.80;68.90;;;;;;5088241;28;20060;-46
2023/05/04 14:06:48;;;;;;;10.35;6.43;;;20.90;69.40;;;;;;5076633;28;20086;-46
2023/05/04 14:09:34;;;;;;;10.10;6.82;;;20.70;68.10;;;;;;5087615;28;20395;-48
2023/05/04 14:12:21;;;;;;;8.95;6.57;;;20.60;67.90;;;;;;5092398;28;20028;-48
2023/05/04 14:15:07;;;;;;;10.52;5.60;;;20.40;68.40;;;;;;5075866;28;20027;-48
2023/05/04 14:17:53;;;;;;;9.68;5.70;;;20.80;68.30;;;;;;5068696;28;20025;-47
2023/05/04 14:20:39;;;;;;;8.45;6.50;;;21.10;68.20;;;;;;5052936;28;20036;-50
2023/05/04 14:23:26;;;;;;;16.90;6.45;;;21.30;67.90;;;;;;5053207;28;20034;-50
2023/05/04 14:26:12;;;;;;;9.20;5.95;;;21.30;67.20;;;;;;5059999;28;20095;-45